Time;durP1;ratioP1;P1;durP2;ratioP2;P2;SDS_P1;SDS_P2;PMS_P1;PMS_P2;Temp;Humidity;BMP_temperature;BMP_pressure;BME280_temperature;BME280_humidity;BME280_pressure;Samples;Min_cycle;Max_cycle;Signal;HPM_P1;HPM_P2
2022/03/27 00:00:15;;;;;;;;;;;2.50;86.10;;;;;;5034266;28;20051;-71
2022/03/27 00:02:41;;;;;;;;;;;2.50;85.80;;;;;;5034389;28;19967;-71
2022/03/27 00:05:08;;;;;;;;;;;2.20;88.00;;;;;;5033852;28;20366;-71
2022/03/27 00:07:33;;;;;;;;;;;2.40;87.30;;;;;;5034176;28;20381;-71
2022/03/27 00:09:59;;;;;;;;;;;2.40;87.40;;;;;;5034077;28;19909;-70
2022/03/27 00:12:24;;;;;;;;;;;2.20;88.00;;;;;;5034012;28;19971;-70
2022/03/27 00:14:50;;;;;;;;;;;2.20;88.80;;;;;;5034352;28;19909;-70
2022/03/27 00:17:15;;;;;;;;;;;2.30;88.40;;;;;;5033965;28;19939;-70
2022/03/27 00:19:41;;;;;;;;;;;2.20;87.80;;;;;;5033883;28;19909;-70
2022/03/27 00:22:06;;;;;;;;;;;2.30;87.60;;;;;;5035548;28;19909;-71
2022/03/27 00:24:32;;;;;;;;;;;2.30;87.40;;;;;;5048104;28;20004;-70
2022/03/27 00:26:57;;;;;;;;;;;2.20;88.10;;;;;;5043093;28;19956;-70
2022/03/27 00:29:23;;;;;;;;;;;2.20;88.40;;;;;;5045069;28;19913;-70
2022/03/27 00:31:48;;;;;;;;;;;2.10;88.40;;;;;;5033667;28;19970;-70
2022/03/27 00:34:14;;;;;;;;;;;2.00;88.90;;;;;;5033351;28;19909;-70
2022/03/27 00:36:40;;;;;;;;;;;2.10;90.10;;;;;;5033305;28;20398;-70
2022/03/27 00:39:05;;;;;;;;;;;2.20;88.00;;;;;;5036308;28;19913;-71
2022/03/27 00:41:31;;;;;;;;;;;2.10;88.40;;;;;;5036164;28;19954;-70
2022/03/27 00:43:56;;;;;;;;;;;1.80;89.40;;;;;;5038358;28;19909;-71
2022/03/27 00:46:22;;;;;;;;;;;1.60;90.10;;;;;;5033385;28;19910;-70
2022/03/27 00:48:47;;;;;;;;;;;1.60;90.50;;;;;;5033288;28;19916;-71
2022/03/27 00:51:13;;;;;;;;;;;1.70;90.60;;;;;;5033137;28;19909;-70
2022/03/27 00:53:38;;;;;;;;;;;1.80;90.20;;;;;;5033262;28;20386;-70
2022/03/27 00:56:04;;;;;;;;;;;1.80;90.00;;;;;;5033494;28;20274;-71
2022/03/27 00:58:29;;;;;;;;;;;1.90;90.10;;;;;;5033176;28;19935;-70
2022/03/27 01:01:02;;;;;;;;;;;1.60;90.50;;;;;;5052292;28;19913;-70
2022/03/27 01:03:28;;;;;;;;;;;1.50;91.00;;;;;;5051750;28;19915;-71
2022/03/27 01:05:57;;;;;;;;;;;1.50;91.40;;;;;;5052006;28;19908;-71
2022/03/27 01:11:13;;;;;;;;;;;1.40;91.90;;;;;;5044689;28;20410;-71
2022/03/27 01:13:43;;;;;;;;;;;1.30;92.50;;;;;;5033442;28;19955;-71
2022/03/27 01:16:38;;;;;;;;;;;1.10;92.70;;;;;;5032737;28;19917;-70
2022/03/27 01:19:04;;;;;;;;;;;1.20;93.10;;;;;;5049935;28;19917;-70
2022/03/27 01:21:30;;;;;;;;;;;1.30;92.40;;;;;;5051922;28;19908;-70
2022/03/27 01:23:55;;;;;;;;;;;1.30;92.50;;;;;;5051870;28;19916;-70
2022/03/27 01:26:23;;;;;;;;;;;1.30;92.60;;;;;;5051663;28;20408;-70
2022/03/27 01:28:49;;;;;;;;;;;1.20;93.10;;;;;;5051891;28;19947;-70
2022/03/27 01:31:14;;;;;;;;;;;1.20;93.10;;;;;;5051803;28;19944;-70
2022/03/27 01:33:40;;;;;;;;;;;1.10;93.10;;;;;;5051568;28;19909;-70
2022/03/27 01:36:05;;;;;;;;;;;1.20;93.10;;;;;;5051692;28;20144;-70
2022/03/27 01:38:31;;;;;;;;;;;1.00;93.40;;;;;;5048382;28;19935;-70
2022/03/27 01:40:56;;;;;;;;;;;1.30;93.10;;;;;;5044995;28;19909;-70
2022/03/27 01:43:22;;;;;;;;;;;1.30;93.40;;;;;;5040481;28;20262;-70
2022/03/27 01:45:48;;;;;;;;;;;1.40;92.90;;;;;;5039373;28;20397;-70
2022/03/27 01:48:13;;;;;;;;;;;1.30;92.90;;;;;;5031647;28;19913;-70
2022/03/27 01:50:39;;;;;;;;;;;1.30;93.10;;;;;;5032328;28;19915;-70
2022/03/27 01:53:04;;;;;;;;;;;1.30;93.20;;;;;;5031880;28;20023;-70
2022/03/27 01:55:30;;;;;;;;;;;1.10;93.30;;;;;;5031983;28;20285;-71
2022/03/27 01:57:55;;;;;;;;;;;1.00;93.90;;;;;;5032506;28;19921;-71
2022/03/27 02:00:21;;;;;;;;;;;0.90;94.50;;;;;;5032023;28;19932;-71
2022/03/27 02:02:46;;;;;;;;;;;1.00;94.70;;;;;;5031910;28;19909;-71
2022/03/27 02:05:12;;;;;;;;;;;1.00;94.70;;;;;;5031806;28;19909;-71
2022/03/27 02:07:38;;;;;;;;;;;0.80;95.30;;;;;;5032028;28;19948;-71
2022/03/27 02:10:04;;;;;;;;;;;1.00;95.20;;;;;;5031811;28;20389;-71
2022/03/27 02:12:32;;;;;;;;;;;0.90;95.40;;;;;;5044159;28;19913;-71
2022/03/27 02:14:58;;;;;;;;;;;0.80;96.00;;;;;;5039650;28;19920;-71
2022/03/27 02:17:23;;;;;;;;;;;0.60;96.60;;;;;;5047217;28;20316;-71
2022/03/27 02:19:51;;;;;;;;;;;0.80;96.40;;;;;;5050354;28;20411;-71
2022/03/27 02:22:16;;;;;;;;;;;0.90;96.10;;;;;;5050779;28;19909;-71
2022/03/27 02:24:42;;;;;;;;;;;0.90;96.10;;;;;;5050490;28;19916;-70
2022/03/27 02:27:07;;;;;;;;;;;0.90;96.20;;;;;;5049045;28;20277;-71
2022/03/27 02:29:33;;;;;;;;;;;0.80;96.40;;;;;;5036755;28;20019;-70
2022/03/27 02:31:58;;;;;;;;;;;0.90;96.40;;;;;;5031878;28;19909;-70
2022/03/27 02:34:23;;;;;;;;;;;0.80;96.10;;;;;;5031451;28;19909;-70
2022/03/27 02:36:49;;;;;;;;;;;0.70;96.60;;;;;;5030594;28;19913;-70
2022/03/27 02:39:14;;;;;;;;;;;0.50;98.00;;;;;;5031508;28;19959;-70
2022/03/27 02:41:40;;;;;;;;;;;0.50;98.80;;;;;;5031610;28;19909;-70
2022/03/27 02:44:07;;;;;;;;;;;0.70;98.70;;;;;;5031556;28;19909;-71
2022/03/27 02:46:33;;;;;;;;;;;0.90;98.60;;;;;;5031714;28;20383;-70
2022/03/27 02:48:58;;;;;;;;;;;1.00;97.90;;;;;;5031623;28;20006;-71
2022/03/27 02:51:24;;;;;;;;;;;0.70;98.00;;;;;;5050459;28;20350;-70
2022/03/27 02:53:49;;;;;;;;;;;0.60;99.10;;;;;;5050365;28;19916;-70
2022/03/27 02:56:15;;;;;;;;;;;0.50;99.10;;;;;;5044890;28;19952;-70
2022/03/27 02:58:41;;;;;;;;;;;0.40;99.90;;;;;;5048498;28;19913;-70
2022/03/27 03:01:07;;;;;;;;;;;0.70;99.60;;;;;;5035523;28;20005;-70
2022/03/27 03:03:32;;;;;;;;;;;0.70;99.20;;;;;;5035107;28;19913;-71
2022/03/27 03:05:58;;;;;;;;;;;0.80;99.30;;;;;;5035448;28;19915;-70
2022/03/27 03:08:26;;;;;;;;;;;1.00;98.70;;;;;;5033963;28;19932;-71
2022/03/27 03:10:51;;;;;;;;;;;1.10;97.40;;;;;;5035225;28;19915;-70
2022/03/27 03:13:17;;;;;;;;;;;0.90;97.90;;;;;;5035110;28;19999;-70
2022/03/27 03:15:43;;;;;;;;;;;0.70;98.60;;;;;;5035202;28;19920;-70
2022/03/27 03:18:10;;;;;;;;;;;0.40;99.40;;;;;;5035066;28;19975;-71
2022/03/27 03:20:36;;;;;;;;;;;0.30;99.90;;;;;;5035015;28;19944;-70
2022/03/27 03:23:01;;;;;;;;;;;0.10;99.90;;;;;;5034874;28;19952;-71
2022/03/27 03:25:27;;;;;;;;;;;0.20;99.90;;;;;;5034631;28;19916;-70
2022/03/27 03:27:53;;;;;;;;;;;0.30;99.90;;;;;;5041371;28;20380;-70
2022/03/27 03:30:18;;;;;;;;;;;0.40;99.90;;;;;;5040267;28;20367;-70
2022/03/27 03:32:44;;;;;;;;;;;0.50;99.90;;;;;;5034758;28;20271;-70
2022/03/27 03:35:11;;;;;;;;;;;0.70;99.90;;;;;;5034714;28;20496;-70
2022/03/27 03:37:37;;;;;;;;;;;0.50;99.90;;;;;;5034669;28;20035;-70
2022/03/27 03:40:03;;;;;;;;;;;0.30;99.90;;;;;;5034841;28;19978;-70
2022/03/27 03:42:28;;;;;;;;;;;0.40;99.90;;;;;;5034768;28;20276;-70
2022/03/27 03:44:54;;;;;;;;;;;0.60;99.90;;;;;;5034691;28;19909;-70
2022/03/27 03:47:19;;;;;;;;;;;0.60;99.90;;;;;;5034760;28;19909;-71
2022/03/27 03:49:45;;;;;;;;;;;0.40;99.90;;;;;;5034461;28;20377;-70
2022/03/27 03:52:11;;;;;;;;;;;0.30;99.90;;;;;;5034364;28;20381;-71
2022/03/27 03:54:37;;;;;;;;;;;0.50;99.90;;;;;;5034355;28;19909;-70
2022/03/27 03:57:03;;;;;;;;;;;0.50;99.90;;;;;;5040673;28;20392;-70
2022/03/27 03:59:29;;;;;;;;;;;0.50;99.90;;;;;;5041986;28;19913;-70
2022/03/27 04:01:55;;;;;;;;;;;0.50;99.90;;;;;;5034290;28;19917;-70
2022/03/27 04:04:20;;;;;;;;;;;0.60;99.90;;;;;;5034095;28;19916;-70
2022/03/27 04:06:45;;;;;;;;;;;0.50;99.90;;;;;;5034643;28;19909;-70
2022/03/27 04:09:11;;;;;;;;;;;0.60;99.90;;;;;;5034184;28;20005;-70
2022/03/27 04:11:36;;;;;;;;;;;0.60;99.90;;;;;;5052747;28;20362;-70
2022/03/27 04:14:02;;;;;;;;;;;0.50;99.90;;;;;;5053011;28;19916;-70
2022/03/27 04:16:28;;;;;;;;;;;0.50;99.90;;;;;;5053145;28;19917;-70
2022/03/27 04:18:54;;;;;;;;;;;0.40;99.90;;;;;;5053059;28;19939;-70
2022/03/27 04:21:19;;;;;;;;;;;0.20;99.90;;;;;;5052967;28;19999;-70
2022/03/27 04:23:45;;;;;;;;;;;0.30;99.90;;;;;;5052970;28;19924;-70
2022/03/27 04:26:11;;;;;;;;;;;0.30;99.90;;;;;;5047319;28;19983;-71
2022/03/27 04:28:37;;;;;;;;;;;0.10;99.90;;;;;;5057635;28;19909;-70
2022/03/27 04:31:03;;;;;;;;;;;0.10;99.90;;;;;;5036650;28;19921;-70
2022/03/27 04:33:28;;;;;;;;;;;0.20;99.90;;;;;;5033806;28;20391;-70
2022/03/27 04:35:54;;;;;;;;;;;0.10;99.90;;;;;;5033749;28;20293;-70
2022/03/27 04:38:19;;;;;;;;;;;0.10;99.90;;;;;;5033751;28;19921;-70
2022/03/27 04:40:45;;;;;;;;;;;-0.20;99.90;;;;;;5033782;28;19910;-70
2022/03/27 04:43:10;;;;;;;;;;;-0.10;99.90;;;;;;5033478;28;20366;-70
2022/03/27 04:45:36;;;;;;;;;;;-0.30;99.90;;;;;;5041135;28;19988;-70
2022/03/27 04:48:01;;;;;;;;;;;-0.40;99.90;;;;;;5040379;28;19960;-70
2022/03/27 04:50:27;;;;;;;;;;;-0.60;99.90;;;;;;5033501;28;20388;-70
2022/03/27 04:52:52;;;;;;;;;;;-0.50;99.90;;;;;;5033890;28;19916;-70
2022/03/27 04:55:18;;;;;;;;;;;-0.30;99.90;;;;;;5050605;28;20381;-70
2022/03/27 04:57:43;;;;;;;;;;;-0.20;99.90;;;;;;5036551;28;19917;-70
2022/03/27 05:00:10;;;;;;;;;;;-0.10;99.90;;;;;;5033377;28;19992;-70
2022/03/27 05:02:36;;;;;;;;;;;-0.20;99.90;;;;;;5036767;28;19909;-70
2022/03/27 05:05:04;;;;;;;;;;;-0.40;99.90;;;;;;5034518;28;20007;-70
2022/03/27 05:07:29;;;;;;;;;;;-0.50;99.90;;;;;;5034118;28;19909;-71
2022/03/27 05:09:54;;;;;;;;;;;-0.50;99.90;;;;;;5033726;28;19932;-70
2022/03/27 05:12:20;;;;;;;;;;;-0.60;99.90;;;;;;5033834;28;19955;-70
2022/03/27 05:14:45;;;;;;;;;;;-0.80;99.90;;;;;;5033708;28;19915;-71
2022/03/27 05:17:11;;;;;;;;;;;-0.80;99.90;;;;;;5033590;28;19917;-70
2022/03/27 05:19:36;;;;;;;;;;;-0.80;99.90;;;;;;5032824;28;19913;-70
2022/03/27 05:22:02;;;;;;;;;;;-0.80;99.90;;;;;;5032726;28;19979;-70
2022/03/27 05:24:28;;;;;;;;;;;-0.80;99.90;;;;;;5035195;28;19913;-71
2022/03/27 05:26:54;;;;;;;;;;;-0.60;99.90;;;;;;5038181;28;19959;-70
2022/03/27 05:29:20;;;;;;;;;;;-0.50;99.90;;;;;;5042834;28;19956;-71
2022/03/27 05:31:45;;;;;;;;;;;-0.40;99.90;;;;;;5051694;28;20110;-70
2022/03/27 05:34:11;;;;;;;;;;;-0.40;99.90;;;;;;5051503;28;19916;-70
2022/03/27 05:36:36;;;;;;;;;;;-0.40;99.90;;;;;;5051688;28;19913;-70
2022/03/27 05:39:02;;;;;;;;;;;-0.40;99.90;;;;;;5051534;28;19913;-71
2022/03/27 05:41:27;;;;;;;;;;;-0.20;99.90;;;;;;5051526;28;19917;-70
2022/03/27 05:43:53;;;;;;;;;;;-0.20;99.90;;;;;;5051384;28;19923;-70
2022/03/27 05:46:18;;;;;;;;;;;-0.30;99.90;;;;;;5051732;28;20007;-70
2022/03/27 05:48:44;;;;;;;;;;;-0.40;99.90;;;;;;5051162;28;20006;-71
2022/03/27 05:51:09;;;;;;;;;;;-0.30;99.90;;;;;;5051136;28;19909;-70
2022/03/27 05:53:35;;;;;;;;;;;-0.30;99.90;;;;;;5051100;28;19916;-71
2022/03/27 05:56:01;;;;;;;;;;;-0.20;99.90;;;;;;5049111;28;19936;-70
2022/03/27 05:58:27;;;;;;;;;;;-0.20;99.90;;;;;;5048993;28;19913;-71
2022/03/27 06:00:53;;;;;;;;;;;-0.20;99.90;;;;;;5035309;28;20428;-70
2022/03/27 06:03:18;;;;;;;;;;;-0.20;99.90;;;;;;5031863;28;19913;-71
2022/03/27 06:05:43;;;;;;;;;;;-0.10;99.90;;;;;;5032271;28;19974;-71
2022/03/27 06:08:09;;;;;;;;;;;0.00;99.90;;;;;;5032160;28;19909;-71
2022/03/27 06:10:35;;;;;;;;;;;0.00;99.90;;;;;;5032024;28;19909;-71
2022/03/27 06:13:02;;;;;;;;;;;0.20;99.90;;;;;;5032014;28;19909;-70
2022/03/27 06:15:28;;;;;;;;;;;0.30;99.90;;;;;;5031809;28;19909;-70
2022/03/27 06:17:54;;;;;;;;;;;0.40;99.90;;;;;;5031832;28;19917;-70
2022/03/27 06:20:22;;;;;;;;;;;0.50;99.90;;;;;;5031801;28;19914;-70
2022/03/27 06:22:47;;;;;;;;;;;0.70;99.90;;;;;;5031646;28;19909;-70
2022/03/27 06:25:14;;;;;;;;;;;0.60;99.90;;;;;;5031671;28;20301;-70
2022/03/27 06:27:40;;;;;;;;;;;0.70;99.90;;;;;;5034479;28;20394;-70
2022/03/27 06:30:06;;;;;;;;;;;0.90;99.90;;;;;;5041829;28;19956;-71
2022/03/27 06:32:32;;;;;;;;;;;0.90;99.90;;;;;;5031691;28;20289;-71
2022/03/27 06:34:57;;;;;;;;;;;1.00;99.90;;;;;;5032884;28;19909;-71
2022/03/27 06:37:23;;;;;;;;;;;1.20;99.90;;;;;;5036133;28;19920;-70
2022/03/27 06:39:49;;;;;;;;;;;1.40;99.90;;;;;;5035910;28;19913;-71
2022/03/27 06:42:15;;;;;;;;;;;1.60;99.90;;;;;;5035848;28;20329;-70
2022/03/27 06:44:40;;;;;;;;;;;1.80;99.90;;;;;;5035874;28;20350;-70
2022/03/27 06:47:07;;;;;;;;;;;1.90;99.90;;;;;;5036343;28;19909;-71
2022/03/27 06:49:33;;;;;;;;;;;2.10;99.90;;;;;;5039909;28;19913;-70
2022/03/27 06:51:58;;;;;;;;;;;2.20;99.90;;;;;;5048508;28;19983;-70
2022/03/27 06:54:24;;;;;;;;;;;2.40;99.90;;;;;;5036153;28;20058;-70
2022/03/27 06:56:49;;;;;;;;;;;2.60;99.90;;;;;;5035829;28;20429;-70
2022/03/27 06:59:15;;;;;;;;;;;2.90;99.90;;;;;;5035287;28;20011;-70
2022/03/27 07:04:24;;;;;;;;;;;3.40;99.90;;;;;;5048551;28;19916;-70
2022/03/27 07:06:50;;;;;;;;;;;3.60;99.90;;;;;;5054590;28;19909;-71
2022/03/27 07:09:18;;;;;;;;;;;3.80;99.90;;;;;;5054484;28;19916;-70
2022/03/27 07:11:44;;;;;;;;;;;4.10;99.70;;;;;;5054465;28;19913;-71
2022/03/27 07:14:12;;;;;;;;;;;4.40;98.40;;;;;;5054051;28;19916;-71
2022/03/27 07:16:38;;;;;;;;;;;4.70;97.60;;;;;;5047808;28;20508;-71
2022/03/27 07:19:04;;;;;;;;;;;4.90;96.50;;;;;;5054175;28;20019;-70
2022/03/27 07:21:29;;;;;;;;;;;5.40;94.30;;;;;;5040959;28;19910;-71
2022/03/27 07:23:55;;;;;;;;;;;5.80;93.10;;;;;;5035092;28;19913;-70
2022/03/27 07:26:21;;;;;;;;;;;6.40;91.70;;;;;;5035092;28;20370;-70
2022/03/27 07:28:47;;;;;;;;;;;6.50;91.10;;;;;;5034737;28;19909;-71
2022/03/27 07:31:13;;;;;;;;;;;6.60;90.80;;;;;;5034824;28;19913;-71
2022/03/27 07:33:39;;;;;;;;;;;6.90;90.20;;;;;;5034598;28;20374;-72
2022/03/27 07:36:04;;;;;;;;;;;7.30;88.90;;;;;;5034683;28;19909;-71
2022/03/27 07:38:30;;;;;;;;;;;7.40;88.90;;;;;;5034764;28;19913;-71
2022/03/27 07:40:55;;;;;;;;;;;7.40;88.60;;;;;;5034576;28;20354;-71
2022/03/27 07:43:21;;;;;;;;;;;7.60;88.10;;;;;;5034501;28;19916;-72
2022/03/27 07:45:46;;;;;;;;;;;7.90;87.90;;;;;;5033974;28;19913;-70
2022/03/27 07:48:12;;;;;;;;;;;8.20;88.40;;;;;;5033815;28;19909;-71
2022/03/27 07:50:37;;;;;;;;;;;8.40;86.90;;;;;;5048305;28;19916;-71
2022/03/27 07:53:04;;;;;;;;;;;8.60;86.70;;;;;;5039928;28;20020;-70
2022/03/27 07:55:30;;;;;;;;;;;8.90;86.90;;;;;;5034365;28;20386;-71
2022/03/27 07:57:56;;;;;;;;;;;10.30;81.80;;;;;;5033957;28;19920;-71
2022/03/27 08:00:22;;;;;;;;;;;12.80;73.60;;;;;;5033994;28;19913;-71
2022/03/27 08:02:47;;;;;;;;;;;14.00;68.20;;;;;;5039622;28;19976;-72
2022/03/27 08:05:13;;;;;;;;;;;15.40;63.20;;;;;;5039039;28;20012;-71
2022/03/27 08:07:39;;;;;;;;;;;15.80;61.20;;;;;;5034181;28;19909;-71
2022/03/27 08:10:05;;;;;;;;;;;14.80;61.40;;;;;;5034286;28;19932;-71
2022/03/27 08:12:30;;;;;;;;;;;15.60;59.90;;;;;;5033621;28;19955;-71
2022/03/27 08:14:56;;;;;;;;;;;16.60;59.30;;;;;;5033643;28;19995;-72
2022/03/27 08:17:22;;;;;;;;;;;16.80;56.50;;;;;;5033826;28;20305;-71
2022/03/27 08:19:49;;;;;;;;;;;16.70;56.90;;;;;;5041001;28;19917;-70
2022/03/27 08:22:14;;;;;;;;;;;17.60;56.30;;;;;;5032201;28;19913;-70
2022/03/27 08:24:40;;;;;;;;;;;18.10;56.50;;;;;;5033471;28;19910;-70
2022/03/27 08:27:07;;;;;;;;;;;17.90;55.40;;;;;;5033515;28;19909;-70
2022/03/27 08:29:34;;;;;;;;;;;17.70;53.90;;;;;;5033089;28;19921;-71
2022/03/27 08:32:00;;;;;;;;;;;18.20;54.30;;;;;;5042495;28;20354;-70
2022/03/27 08:34:28;;;;;;;;;;;19.10;53.70;;;;;;5035525;28;20426;-71
2022/03/27 08:36:54;;;;;;;;;;;19.70;53.60;;;;;;5033521;28;19917;-70
2022/03/27 08:39:19;;;;;;;;;;;19.50;52.40;;;;;;5031964;28;19982;-70
2022/03/27 08:41:46;;;;;;;;;;;20.50;51.10;;;;;;5033630;28;19947;-71
2022/03/27 08:44:12;;;;;;;;;;;19.50;51.70;;;;;;5038116;28;19909;-70
2022/03/27 08:46:39;;;;;;;;;;;19.30;51.00;;;;;;5033268;28;19909;-70
2022/03/27 08:49:08;;;;;;;;;;;20.20;51.40;;;;;;5033158;28;20282;-71
2022/03/27 08:51:38;;;;;;;;;;;20.30;49.30;;;;;;5035302;28;19913;-70
2022/03/27 08:54:05;;;;;;;;;;;19.70;51.30;;;;;;5039624;28;20283;-70
2022/03/27 08:56:32;;;;;;;;;;;20.40;50.50;;;;;;5033441;28;19917;-71
2022/03/27 08:58:59;;;;;;;;;;;20.80;50.30;;;;;;5033420;28;19917;-71
2022/03/27 09:01:25;;;;;;;;;;;21.50;49.20;;;;;;5033335;28;19909;-71
2022/03/27 09:03:51;;;;;;;;;;;20.80;48.00;;;;;;5033317;28;19952;-71
2022/03/27 09:06:16;;;;;;;;;;;21.30;46.60;;;;;;5033319;28;19917;-70
2022/03/27 09:08:42;;;;;;;;;;;21.40;48.90;;;;;;5033191;28;19909;-70
2022/03/27 09:11:12;;;;;;;;;;;21.00;46.80;;;;;;5032573;28;19921;-70
2022/03/27 09:13:39;;;;;;;;;;;21.20;48.40;;;;;;5045496;28;19909;-71
2022/03/27 09:16:07;;;;;;;;;;;21.10;47.40;;;;;;5032526;28;20431;-71
2022/03/27 09:18:53;;;;;;;;;;;21.90;46.60;;;;;;5046046;28;19917;-71
2022/03/27 09:21:20;;;;;;;;;;;22.20;47.40;;;;;;5039447;28;20404;-70
2022/03/27 09:23:59;;;;;;;;;;;22.70;44.40;;;;;;5037021;28;19921;-70
2022/03/27 09:26:25;;;;;;;;;;;23.00;45.80;;;;;;5035695;28;20437;-70
2022/03/27 09:28:55;;;;;;;;;;;22.60;44.20;;;;;;5043344;28;19916;-71
2022/03/27 09:31:22;;;;;;;;;;;23.10;46.00;;;;;;5034339;28;20324;-71
2022/03/27 09:33:49;;;;;;;;;;;23.30;45.30;;;;;;5032043;28;19917;-71
2022/03/27 09:36:19;;;;;;;;;;;23.40;43.30;;;;;;5032350;28;19913;-71
2022/03/27 09:39:00;;;;;;;;;;;24.20;41.20;;;;;;5032277;28;20358;-71
2022/03/27 09:41:34;;;;;;;;;;;24.10;44.70;;;;;;5051226;28;19909;-72
2022/03/27 09:44:04;;;;;;;;;;;24.40;42.90;;;;;;5032078;28;19954;-71
2022/03/27 09:46:50;;;;;;;;;;;24.50;40.60;;;;;;5031983;28;20286;-71
2022/03/27 09:49:16;;;;;;;;;;;23.60;42.80;;;;;;5035088;28;19910;-72
2022/03/27 09:51:51;;;;;;;;;;;23.20;41.90;;;;;;5031939;28;20448;-70
2022/03/27 09:54:17;;;;;;;;;;;24.80;42.70;;;;;;5031679;28;19967;-72
2022/03/27 09:56:42;;;;;;;;;;;26.20;40.60;;;;;;5035597;28;19952;-72
2022/03/27 09:59:24;;;;;;;;;;;25.60;40.00;;;;;;5039173;28;19917;-71
2022/03/27 10:01:49;;;;;;;;;;;25.30;41.50;;;;;;5031843;28;19909;-72
2022/03/27 10:04:16;;;;;;;;;;;26.00;39.40;;;;;;5034941;28;19959;-71
2022/03/27 10:06:42;;;;;;;;;;;25.80;37.90;;;;;;5050887;28;20328;-71
2022/03/27 10:09:09;;;;;;;;;;;26.00;40.10;;;;;;5050244;28;20380;-71
2022/03/27 10:11:35;;;;;;;;;;;27.10;37.70;;;;;;5050557;28;19913;-72
2022/03/27 10:14:01;;;;;;;;;;;24.60;40.60;;;;;;5050599;28;19909;-72
2022/03/27 10:16:28;;;;;;;;;;;26.00;38.20;;;;;;5050556;28;20424;-71
2022/03/27 10:18:55;;;;;;;;;;;26.80;37.30;;;;;;5051077;28;19963;-71
2022/03/27 10:21:23;;;;;;;;;;;26.80;37.90;;;;;;5050799;28;20354;-71
2022/03/27 10:23:50;;;;;;;;;;;25.30;35.90;;;;;;5050586;28;19909;-71
2022/03/27 10:26:16;;;;;;;;;;;26.00;40.80;;;;;;5046963;28;19914;-72
2022/03/27 10:28:42;;;;;;;;;;;26.40;38.00;;;;;;5041722;28;19917;-72
2022/03/27 10:31:08;;;;;;;;;;;27.20;35.00;;;;;;5037842;28;19909;-72
2022/03/27 10:33:34;;;;;;;;;;;27.70;34.10;;;;;;5030065;28;19913;-72
2022/03/27 10:36:02;;;;;;;;;;;27.20;34.60;;;;;;5031817;28;20424;-72
2022/03/27 10:38:28;;;;;;;;;;;26.50;38.30;;;;;;5031495;28;19914;-72
2022/03/27 10:40:55;;;;;;;;;;;27.30;38.60;;;;;;5031995;28;19916;-73
2022/03/27 10:43:26;;;;;;;;;;;28.40;35.30;;;;;;5031205;28;19910;-72
2022/03/27 10:46:10;;;;;;;;;;;25.80;34.60;;;;;;5031242;28;19917;-73
2022/03/27 10:48:42;;;;;;;;;;;27.90;35.30;;;;;;5044623;28;19909;-72
2022/03/27 10:51:30;;;;;;;;;;;27.10;33.60;;;;;;5050838;28;20413;-73
2022/03/27 10:54:03;;;;;;;;;;;28.10;33.80;;;;;;5040351;28;19962;-73
2022/03/27 10:56:56;;;;;;;;;;;29.60;32.90;;;;;;5041656;28;20354;-72
2022/03/27 10:59:24;;;;;;;;;;;27.10;33.70;;;;;;5045967;28;19913;-72
2022/03/27 11:01:54;;;;;;;;;;;27.50;34.70;;;;;;5050891;28;19932;-74
2022/03/27 11:04:35;;;;;;;;;;;27.80;31.90;;;;;;5050787;28;20191;-72
2022/03/27 11:07:16;;;;;;;;;;;28.90;33.60;;;;;;5049695;28;19958;-72
2022/03/27 11:09:44;;;;;;;;;;;29.60;30.50;;;;;;5050717;28;20426;-72
2022/03/27 11:12:22;;;;;;;;;;;29.00;32.80;;;;;;5032370;28;19924;-72
2022/03/27 11:14:50;;;;;;;;;;;28.90;32.70;;;;;;5031284;28;19909;-73
2022/03/27 11:17:16;;;;;;;;;;;28.80;32.00;;;;;;5031684;28;19917;-74
2022/03/27 11:19:41;;;;;;;;;;;27.50;33.50;;;;;;5031574;28;19928;-72
2022/03/27 11:22:07;;;;;;;;;;;27.90;31.00;;;;;;5034432;28;19915;-72
2022/03/27 11:24:32;;;;;;;;;;;28.10;31.20;;;;;;5042839;28;19923;-72
2022/03/27 11:26:58;;;;;;;;;;;27.70;32.10;;;;;;5044483;28;20289;-72
2022/03/27 11:29:24;;;;;;;;;;;26.40;34.10;;;;;;5041478;28;19909;-72
2022/03/27 11:32:09;;;;;;;;;;;28.60;33.20;;;;;;5034985;28;19956;-72
2022/03/27 11:34:35;;;;;;;;;;;29.40;30.00;;;;;;5041776;28;19913;-72
2022/03/27 11:37:15;;;;;;;;;;;29.80;29.80;;;;;;5050387;28;19966;-72
2022/03/27 11:39:40;;;;;;;;;;;29.50;29.40;;;;;;5035049;28;20007;-71
2022/03/27 11:42:22;;;;;;;;;;;27.50;28.90;;;;;;5035103;28;19949;-72
2022/03/27 11:47:42;;;;;;;;;;;28.40;30.20;;;;;;5048263;28;19920;-72
2022/03/27 11:50:09;;;;;;;;;;;28.30;29.30;;;;;;5054193;28;19909;-72
2022/03/27 11:52:34;;;;;;;;;;;28.60;30.60;;;;;;5054949;28;20061;-72
2022/03/27 11:55:03;;;;;;;;;;;29.40;31.80;;;;;;5053895;28;19962;-73
2022/03/27 11:57:39;;;;;;;;;;;27.10;30.80;;;;;;5046593;28;19910;-71
2022/03/27 12:00:05;;;;;;;;;;;26.50;30.60;;;;;;5034778;28;19913;-71
2022/03/27 12:02:39;;;;;;;;;;;28.50;30.30;;;;;;5034658;28;19909;-72
2022/03/27 12:05:04;;;;;;;;;;;28.40;29.80;;;;;;5040827;28;19917;-72
2022/03/27 12:07:47;;;;;;;;;;;27.90;31.50;;;;;;5039969;28;19967;-72
2022/03/27 12:10:13;;;;;;;;;;;22.00;33.60;;;;;;5040651;28;19917;-72
2022/03/27 12:12:39;;;;;;;;;;;19.90;37.30;;;;;;5038207;28;19915;-71
2022/03/27 12:15:05;;;;;;;;;;;19.40;38.90;;;;;;5036180;28;20008;-72
2022/03/27 12:17:35;;;;;;;;;;;19.10;37.40;;;;;;5034367;28;19917;-72
2022/03/27 12:20:02;;;;;;;;;;;19.40;38.30;;;;;;5034291;28;19913;-72
2022/03/27 12:22:31;;;;;;;;;;;19.30;38.50;;;;;;5034171;28;19909;-75
2022/03/27 12:24:57;;;;;;;;;;;19.00;39.60;;;;;;5034131;28;19917;-72
2022/03/27 12:30:09;;;;;;;;;;;18.50;40.10;;;;;;5047803;28;20429;-74
2022/03/27 12:32:36;;;;;;;;;;;18.70;41.50;;;;;;5052598;28;19913;-71
2022/03/27 12:35:02;;;;;;;;;;;18.20;41.20;;;;;;5052918;28;19909;-74
2022/03/27 12:37:29;;;;;;;;;;;18.40;42.50;;;;;;5046651;28;20394;-72
2022/03/27 12:39:54;;;;;;;;;;;18.30;40.70;;;;;;5042965;28;19917;-72
2022/03/27 12:42:35;;;;;;;;;;;18.30;40.50;;;;;;5053042;28;19909;-71
2022/03/27 12:45:00;;;;;;;;;;;18.50;43.20;;;;;;5052604;28;19908;-74
2022/03/27 12:47:30;;;;;;;;;;;18.50;41.50;;;;;;5038645;28;19916;-74
2022/03/27 12:49:55;;;;;;;;;;;18.20;38.80;;;;;;5032502;28;20008;-72
2022/03/27 12:52:20;;;;;;;;;;;18.00;39.20;;;;;;5033582;28;20377;-72
2022/03/27 12:55:00;;;;;;;;;;;18.00;39.80;;;;;;5033489;28;19909;-72
2022/03/27 12:57:45;;;;;;;;;;;17.80;39.50;;;;;;5033611;28;20019;-71
2022/03/27 13:00:14;;;;;;;;;;;18.00;39.10;;;;;;5033036;28;20412;-71
2022/03/27 13:02:40;;;;;;;;;;;18.10;40.20;;;;;;5033396;28;19909;-71
2022/03/27 13:05:05;;;;;;;;;;;18.40;40.20;;;;;;5031919;28;20274;-71
2022/03/27 13:07:50;;;;;;;;;;;18.30;38.80;;;;;;5042108;28;19909;-71
2022/03/27 13:10:16;;;;;;;;;;;18.10;38.00;;;;;;5040081;28;19916;-71
2022/03/27 13:12:42;;;;;;;;;;;17.80;37.50;;;;;;5032831;28;19909;-71
2022/03/27 13:15:07;;;;;;;;;;;17.80;39.10;;;;;;5032904;28;19967;-72
2022/03/27 13:17:33;;;;;;;;;;;18.00;37.50;;;;;;5032911;28;20012;-73
2022/03/27 13:19:58;;;;;;;;;;;18.20;39.50;;;;;;5052022;28;20003;-71
2022/03/27 13:22:24;;;;;;;;;;;17.90;38.00;;;;;;5051943;28;19912;-71
2022/03/27 13:24:49;;;;;;;;;;;18.20;38.30;;;;;;5051696;28;19908;-71
2022/03/27 13:27:15;;;;;;;;;;;18.30;38.60;;;;;;5051938;28;19909;-73
2022/03/27 13:29:41;;;;;;;;;;;18.40;37.00;;;;;;5047012;28;19909;-71
2022/03/27 13:32:07;;;;;;;;;;;18.20;38.30;;;;;;5035870;28;20393;-71
2022/03/27 13:34:34;;;;;;;;;;;18.20;38.80;;;;;;5031025;28;19913;-71
2022/03/27 13:37:00;;;;;;;;;;;18.10;36.90;;;;;;5032712;28;20354;-71
2022/03/27 13:39:26;;;;;;;;;;;18.00;39.50;;;;;;5032570;28;19913;-73
2022/03/27 13:44:36;;;;;;;;;;;18.00;36.50;;;;;;5044670;28;20420;-73
2022/03/27 13:47:03;;;;;;;;;;;18.10;38.20;;;;;;5051617;28;19916;-71
2022/03/27 13:49:28;;;;;;;;;;;17.90;37.40;;;;;;5051597;28;20013;-71
2022/03/27 13:51:54;;;;;;;;;;;17.90;37.90;;;;;;5051403;28;20393;-71
2022/03/27 13:54:20;;;;;;;;;;;18.00;36.60;;;;;;5051297;28;20389;-73
2022/03/27 13:56:46;;;;;;;;;;;17.90;35.70;;;;;;5051160;28;19912;-72
2022/03/27 13:59:13;;;;;;;;;;;17.90;36.70;;;;;;5045812;28;19967;-73
2022/03/27 14:01:41;;;;;;;;;;;17.80;37.30;;;;;;5048665;28;19916;-71
2022/03/27 14:04:07;;;;;;;;;;;17.80;36.90;;;;;;5032310;28;19951;-71
2022/03/27 14:06:33;;;;;;;;;;;18.10;36.90;;;;;;5032270;28;19964;-71
2022/03/27 14:08:59;;;;;;;;;;;18.00;38.00;;;;;;5030742;28;19952;-71
2022/03/27 14:11:25;;;;;;;;;;;17.90;35.60;;;;;;5032165;28;19909;-71
2022/03/27 14:13:50;;;;;;;;;;;18.10;36.30;;;;;;5032027;28;19909;-71
2022/03/27 14:16:16;;;;;;;;;;;18.00;35.30;;;;;;5031906;28;20263;-71
2022/03/27 14:18:42;;;;;;;;;;;18.00;34.40;;;;;;5031919;28;20359;-71
2022/03/27 14:21:08;;;;;;;;;;;18.10;35.70;;;;;;5031634;28;19909;-71
2022/03/27 14:23:34;;;;;;;;;;;18.00;36.30;;;;;;5031503;28;19917;-71
2022/03/27 14:26:01;;;;;;;;;;;17.70;34.60;;;;;;5031806;28;19999;-71
2022/03/27 14:28:30;;;;;;;;;;;17.80;35.10;;;;;;5031947;28;19909;-72
2022/03/27 14:30:56;;;;;;;;;;;17.70;36.40;;;;;;5041743;28;19908;-71
2022/03/27 14:33:23;;;;;;;;;;;17.70;35.10;;;;;;5038686;28;19909;-71
2022/03/27 14:35:49;;;;;;;;;;;17.90;35.80;;;;;;5031863;28;20000;-73